sensor_id;sensor_type;location;lat;lon;timestamp;temperature;humidity
78884;SHT31;68262;51.968;5.672;2023-05-10T00:01:33;17.5;68.8
78884;SHT31;68262;51.968;5.672;2023-05-10T00:04:02;17.5;68.9
78884;SHT31;68262;51.968;5.672;2023-05-10T00:06:32;17.5;68.8
78884;SHT31;68262;51.968;5.672;2023-05-10T00:09:01;17.5;69.2
78884;SHT31;68262;51.968;5.672;2023-05-10T00:11:31;17.5;69.2
78884;SHT31;68262;51.968;5.672;2023-05-10T00:14:01;17.5;69.1
78884;SHT31;68262;51.968;5.672;2023-05-10T00:16:30;17.5;68.9
78884;SHT31;68262;51.968;5.672;2023-05-10T00:19:00;17.5;69.3
78884;SHT31;68262;51.968;5.672;2023-05-10T00:21:29;17.5;69.4
78884;SHT31;68262;51.968;5.672;2023-05-10T00:24:01;17.5;69.3
78884;SHT31;68262;51.968;5.672;2023-05-10T00:26:31;17.5;69.1
78884;SHT31;68262;51.968;5.672;2023-05-10T00:29:01;17.5;69.1
78884;SHT31;68262;51.968;5.672;2023-05-10T00:31:30;17.5;69.3
78884;SHT31;68262;51.968;5.672;2023-05-10T00:33:59;17.5;69.3
78884;SHT31;68262;51.968;5.672;2023-05-10T00:36:29;17.5;69.0
78884;SHT31;68262;51.968;5.672;2023-05-10T00:38:59;17.5;69.1
78884;SHT31;68262;51.968;5.672;2023-05-10T00:41:31;17.5;69.1
78884;SHT31;68262;51.968;5.672;2023-05-10T00:44:01;17.6;69.0
78884;SHT31;68262;51.968;5.672;2023-05-10T00:46:31;17.6;68.6
78884;SHT31;68262;51.968;5.672;2023-05-10T00:49:01;17.6;68.5
78884;SHT31;68262;51.968;5.672;2023-05-10T00:51:32;17.6;68.6
78884;SHT31;68262;51.968;5.672;2023-05-10T00:54:02;17.6;68.6
78884;SHT31;68262;51.968;5.672;2023-05-10T00:56:32;17.6;68.7
78884;SHT31;68262;51.968;5.672;2023-05-10T00:59:03;17.6;68.8
78884;SHT31;68262;51.968;5.672;2023-05-10T01:01:34;17.6;68.8
78884;SHT31;68262;51.968;5.672;2023-05-10T01:04:04;17.6;69.2
78884;SHT31;68262;51.968;5.672;2023-05-10T01:06:34;17.5;69.1
78884;SHT31;68262;51.968;5.672;2023-05-10T01:09:03;17.5;69.2
78884;SHT31;68262;51.968;5.672;2023-05-10T01:11:35;17.5;69.4
78884;SHT31;68262;51.968;5.672;2023-05-10T01:14:05;17.5;69.6
78884;SHT31;68262;51.968;5.672;2023-05-10T01:16:37;17.5;69.7
78884;SHT31;68262;51.968;5.672;2023-05-10T01:19:15;17.5;69.8
78884;SHT31;68262;51.968;5.672;2023-05-10T01:21:53;17.5;70.0
78884;SHT31;68262;51.968;5.672;2023-05-10T01:25:22;17.5;69.9
78884;SHT31;68262;51.968;5.672;2023-05-10T01:29:28;17.5;70.1
78884;SHT31;68262;51.968;5.672;2023-05-10T01:32:26;17.5;70.5
78884;SHT31;68262;51.968;5.672;2023-05-10T01:35:05;17.5;70.0
78884;SHT31;68262;51.968;5.672;2023-05-10T01:37:41;17.5;69.6
78884;SHT31;68262;51.968;5.672;2023-05-10T01:40:19;17.5;69.8
78884;SHT31;68262;51.968;5.672;2023-05-10T01:42:53;17.5;69.5
78884;SHT31;68262;51.968;5.672;2023-05-10T01:45:30;17.5;69.4
78884;SHT31;68262;51.968;5.672;2023-05-10T01:48:06;17.5;69.5
78884;SHT31;68262;51.968;5.672;2023-05-10T01:50:38;17.5;69.3
78884;SHT31;68262;51.968;5.672;2023-05-10T01:53:11;17.5;69.3
78884;SHT31;68262;51.968;5.672;2023-05-10T01:55:46;17.5;69.4
78884;SHT31;68262;51.968;5.672;2023-05-10T01:58:23;17.5;69.6
78884;SHT31;68262;51.968;5.672;2023-05-10T02:00:55;17.5;69.4
78884;SHT31;68262;51.968;5.672;2023-05-10T02:03:28;17.5;69.1
78884;SHT31;68262;51.968;5.672;2023-05-10T02:06:01;17.5;69.1
78884;SHT31;68262;51.968;5.672;2023-05-10T02:08:33;17.5;69.1
78884;SHT31;68262;51.968;5.672;2023-05-10T02:11:05;17.5;68.7
78884;SHT31;68262;51.968;5.672;2023-05-10T02:13:36;17.5;69.1
78884;SHT31;68262;51.968;5.672;2023-05-10T02:16:08;17.5;68.7
78884;SHT31;68262;51.968;5.672;2023-05-10T02:18:40;17.5;68.9
78884;SHT31;68262;51.968;5.672;2023-05-10T02:21:12;17.5;69.0
78884;SHT31;68262;51.968;5.672;2023-05-10T02:23:43;17.5;68.9
78884;SHT31;68262;51.968;5.672;2023-05-10T02:26:16;17.5;69.4
78884;SHT31;68262;51.968;5.672;2023-05-10T02:28:49;17.5;69.2
78884;SHT31;68262;51.968;5.672;2023-05-10T02:31:21;17.5;69.3
78884;SHT31;68262;51.968;5.672;2023-05-10T02:33:51;17.5;69.1
78884;SHT31;68262;51.968;5.672;2023-05-10T02:36:22;17.5;68.5
78884;SHT31;68262;51.968;5.672;2023-05-10T02:38:53;17.5;67.9
78884;SHT31;68262;51.968;5.672;2023-05-10T02:41:25;17.5;67.9
78884;SHT31;68262;51.968;5.672;2023-05-10T02:43:59;17.5;67.6
78884;SHT31;68262;51.968;5.672;2023-05-10T02:46:30;17.5;68.4
78884;SHT31;68262;51.968;5.672;2023-05-10T02:49:00;17.4;68.4
78884;SHT31;68262;51.968;5.672;2023-05-10T02:51:32;17.4;68.1
78884;SHT31;68262;51.968;5.672;2023-05-10T02:54:13;17.4;68.6
78884;SHT31;68262;51.968;5.672;2023-05-10T02:56:53;17.4;67.7
78884;SHT31;68262;51.968;5.672;2023-05-10T02:59:24;17.4;67.1
78884;SHT31;68262;51.968;5.672;2023-05-10T03:01:53;17.3;67.2
78884;SHT31;68262;51.968;5.672;2023-05-10T03:04:23;17.3;67.2
78884;SHT31;68262;51.968;5.672;2023-05-10T03:06:52;17.3;67.9
78884;SHT31;68262;51.968;5.672;2023-05-10T03:09:22;17.2;68.6
78884;SHT31;68262;51.968;5.672;2023-05-10T03:12:00;17.2;67.9
78884;SHT31;68262;51.968;5.672;2023-05-10T03:14:45;17.2;68.5
78884;SHT31;68262;51.968;5.672;2023-05-10T03:17:25;17.2;68.0
78884;SHT31;68262;51.968;5.672;2023-05-10T03:20:04;17.1;68.3
78884;SHT31;68262;51.968;5.672;2023-05-10T03:22:40;17.1;68.6
78884;SHT31;68262;51.968;5.672;2023-05-10T03:25:12;17.1;68.0
78884;SHT31;68262;51.968;5.672;2023-05-10T03:27:43;17.1;68.1
78884;SHT31;68262;51.968;5.672;2023-05-10T03:30:14;17.1;68.1
78884;SHT31;68262;51.968;5.672;2023-05-10T03:32:44;17.1;68.1
78884;SHT31;68262;51.968;5.672;2023-05-10T03:35:14;17.0;68.2
78884;SHT31;68262;51.968;5.672;2023-05-10T03:37:45;17.0;68.4
78884;SHT31;68262;51.968;5.672;2023-05-10T03:40:15;17.0;68.2
78884;SHT31;68262;51.968;5.672;2023-05-10T03:42:45;17.0;68.5
78884;SHT31;68262;51.968;5.672;2023-05-10T03:45:14;17.0;68.5
78884;SHT31;68262;51.968;5.672;2023-05-10T03:47:44;17.0;68.4
78884;SHT31;68262;51.968;5.672;2023-05-10T03:50:14;17.0;68.1
78884;SHT31;68262;51.968;5.672;2023-05-10T03:52:43;17.0;68.3
78884;SHT31;68262;51.968;5.672;2023-05-10T03:55:15;16.9;68.0
78884;SHT31;68262;51.968;5.672;2023-05-10T03:57:45;16.9;68.1
78884;SHT31;68262;51.968;5.672;2023-05-10T04:00:17;16.9;68.4
78884;SHT31;68262;51.968;5.672;2023-05-10T04:02:48;16.9;68.5
78884;SHT31;68262;51.968;5.672;2023-05-10T04:05:18;16.9;68.5
78884;SHT31;68262;51.968;5.672;2023-05-10T04:07:47;16.9;69.1
78884;SHT31;68262;51.968;5.672;2023-05-10T04:10:20;16.8;69.2
78884;SHT31;68262;51.968;5.672;2023-05-10T04:12:49;16.8;68.8
78884;SHT31;68262;51.968;5.672;2023-05-10T04:15:19;16.8;68.6
78884;SHT31;68262;51.968;5.672;2023-05-10T04:17:50;16.8;69.1
78884;SHT31;68262;51.968;5.672;2023-05-10T04:20:19;16.8;68.8
78884;SHT31;68262;51.968;5.672;2023-05-10T04:22:49;16.8;69.1
78884;SHT31;68262;51.968;5.672;2023-05-10T04:25:18;16.8;69.1
78884;SHT31;68262;51.968;5.672;2023-05-10T04:27:48;16.8;68.9
78884;SHT31;68262;51.968;5.672;2023-05-10T04:30:18;16.8;68.7
78884;SHT31;68262;51.968;5.672;2023-05-10T04:32:47;16.8;68.7
78884;SHT31;68262;51.968;5.672;2023-05-10T04:35:17;16.8;68.7
78884;SHT31;68262;51.968;5.672;2023-05-10T04:37:47;16.8;68.8
78884;SHT31;68262;51.968;5.672;2023-05-10T04:40:16;16.8;69.2
78884;SHT31;68262;51.968;5.672;2023-05-10T04:42:47;16.8;68.9
78884;SHT31;68262;51.968;5.672;2023-05-10T04:45:16;16.8;68.7
78884;SHT31;68262;51.968;5.672;2023-05-10T04:47:46;16.8;68.9
78884;SHT31;68262;51.968;5.672;2023-05-10T04:50:15;16.8;69.3
78884;SHT31;68262;51.968;5.672;2023-05-10T04:52:45;16.8;69.2
78884;SHT31;68262;51.968;5.672;2023-05-10T04:55:14;16.8;69.0
78884;SHT31;68262;51.968;5.672;2023-05-10T04:57:44;16.8;69.6
78884;SHT31;68262;51.968;5.672;2023-05-10T05:00:14;16.8;69.4
78884;SHT31;68262;51.968;5.672;2023-05-10T05:02:45;16.8;69.7
78884;SHT31;68262;51.968;5.672;2023-05-10T05:05:15;16.8;69.2
78884;SHT31;68262;51.968;5.672;2023-05-10T05:07:44;16.9;69.6
78884;SHT31;68262;51.968;5.672;2023-05-10T05:10:14;16.9;69.5
78884;SHT31;68262;51.968;5.672;2023-05-10T05:12:43;16.9;69.8
78884;SHT31;68262;51.968;5.672;2023-05-10T05:15:13;17.0;69.0
78884;SHT31;68262;51.968;5.672;2023-05-10T05:17:44;17.0;68.9
78884;SHT31;68262;51.968;5.672;2023-05-10T05:20:13;17.0;69.1
78884;SHT31;68262;51.968;5.672;2023-05-10T05:22:45;17.0;68.7
78884;SHT31;68262;51.968;5.672;2023-05-10T05:25:17;17.0;69.1
78884;SHT31;68262;51.968;5.672;2023-05-10T05:27:48;17.0;68.9
78884;SHT31;68262;51.968;5.672;2023-05-10T05:30:18;17.0;68.7
78884;SHT31;68262;51.968;5.672;2023-05-10T05:32:48;17.0;69.1
78884;SHT31;68262;51.968;5.672;2023-05-10T05:35:18;17.0;68.9
78884;SHT31;68262;51.968;5.672;2023-05-10T05:37:48;17.0;68.8
78884;SHT31;68262;51.968;5.672;2023-05-10T05:40:17;17.0;68.7
78884;SHT31;68262;51.968;5.672;2023-05-10T05:42:47;17.0;68.9
78884;SHT31;68262;51.968;5.672;2023-05-10T05:45:17;17.0;69.4
78884;SHT31;68262;51.968;5.672;2023-05-10T05:47:46;17.0;69.6
78884;SHT31;68262;51.968;5.672;2023-05-10T05:50:16;17.0;69.4
78884;SHT31;68262;51.968;5.672;2023-05-10T05:52:46;17.0;69.8
78884;SHT31;68262;51.968;5.672;2023-05-10T05:55:15;17.0;69.1
78884;SHT31;68262;51.968;5.672;2023-05-10T05:57:45;17.0;69.3
78884;SHT31;68262;51.968;5.672;2023-05-10T06:00:15;17.0;69.1
78884;SHT31;68262;51.968;5.672;2023-05-10T06:02:45;17.0;69.3
78884;SHT31;68262;51.968;5.672;2023-05-10T06:05:15;17.0;69.7
78884;SHT31;68262;51.968;5.672;2023-05-10T06:07:45;17.0;69.5
78884;SHT31;68262;51.968;5.672;2023-05-10T06:10:14;17.0;69.4
78884;SHT31;68262;51.968;5.672;2023-05-10T06:12:44;17.0;69.5
78884;SHT31;68262;51.968;5.672;2023-05-10T06:15:13;17.0;69.6
78884;SHT31;68262;51.968;5.672;2023-05-10T06:17:43;17.0;69.2
78884;SHT31;68262;51.968;5.672;2023-05-10T06:20:15;17.0;69.4
78884;SHT31;68262;51.968;5.672;2023-05-10T06:22:44;17.0;69.5
78884;SHT31;68262;51.968;5.672;2023-05-10T06:25:14;17.0;69.4
78884;SHT31;68262;51.968;5.672;2023-05-10T06:27:45;17.0;69.3
78884;SHT31;68262;51.968;5.672;2023-05-10T06:30:15;17.0;69.2
78884;SHT31;68262;51.968;5.672;2023-05-10T06:32:44;17.0;69.3
78884;SHT31;68262;51.968;5.672;2023-05-10T06:35:14;17.0;69.5
78884;SHT31;68262;51.968;5.672;2023-05-10T06:37:44;17.0;69.4
78884;SHT31;68262;51.968;5.672;2023-05-10T06:40:16;17.0;69.8
78884;SHT31;68262;51.968;5.672;2023-05-10T06:42:46;17.0;69.8
78884;SHT31;68262;51.968;5.672;2023-05-10T06:45:16;17.0;69.3
78884;SHT31;68262;51.968;5.672;2023-05-10T06:47:47;17.0;69.3
78884;SHT31;68262;51.968;5.672;2023-05-10T06:50:17;17.0;69.3
78884;SHT31;68262;51.968;5.672;2023-05-10T06:52:48;17.0;69.7
78884;SHT31;68262;51.968;5.672;2023-05-10T06:55:18;17.0;70.3
78884;SHT31;68262;51.968;5.672;2023-05-10T06:57:47;17.0;70.1
78884;SHT31;68262;51.968;5.672;2023-05-10T07:00:18;17.0;70.2
78884;SHT31;68262;51.968;5.672;2023-05-10T07:02:50;17.0;70.0
78884;SHT31;68262;51.968;5.672;2023-05-10T07:05:20;17.0;69.6
78884;SHT31;68262;51.968;5.672;2023-05-10T07:07:51;17.0;69.9
78884;SHT31;68262;51.968;5.672;2023-05-10T07:10:21;17.0;70.7
78884;SHT31;68262;51.968;5.672;2023-05-10T07:12:50;17.0;69.8
78884;SHT31;68262;51.968;5.672;2023-05-10T07:15:20;17.0;69.9
78884;SHT31;68262;51.968;5.672;2023-05-10T07:17:50;17.0;69.7
78884;SHT31;68262;51.968;5.672;2023-05-10T07:20:19;17.0;70.0
78884;SHT31;68262;51.968;5.672;2023-05-10T07:22:49;17.0;70.3
78884;SHT31;68262;51.968;5.672;2023-05-10T07:25:20;17.0;69.7
78884;SHT31;68262;51.968;5.672;2023-05-10T07:27:50;17.0;69.8
78884;SHT31;68262;51.968;5.672;2023-05-10T07:30:20;17.0;70.4
78884;SHT31;68262;51.968;5.672;2023-05-10T07:32:49;17.1;70.5
78884;SHT31;68262;51.968;5.672;2023-05-10T07:35:21;17.1;70.6
78884;SHT31;68262;51.968;5.672;2023-05-10T07:37:50;17.1;68.9
78884;SHT31;68262;51.968;5.672;2023-05-10T07:40:20;17.1;69.1
78884;SHT31;68262;51.968;5.672;2023-05-10T07:42:49;17.2;69.5
78884;SHT31;68262;51.968;5.672;2023-05-10T07:45:19;17.2;69.1
78884;SHT31;68262;51.968;5.672;2023-05-10T07:47:49;17.2;68.6
78884;SHT31;68262;51.968;5.672;2023-05-10T07:50:19;17.2;68.2
78884;SHT31;68262;51.968;5.672;2023-05-10T07:52:48;17.2;67.9
78884;SHT31;68262;51.968;5.672;2023-05-10T07:55:18;17.2;67.4
78884;SHT31;68262;51.968;5.672;2023-05-10T07:57:48;17.3;67.2
78884;SHT31;68262;51.968;5.672;2023-05-10T08:00:19;17.3;66.8
78884;SHT31;68262;51.968;5.672;2023-05-10T08:02:49;17.3;66.4
78884;SHT31;68262;51.968;5.672;2023-05-10T08:05:20;17.3;66.5
78884;SHT31;68262;51.968;5.672;2023-05-10T08:07:50;17.3;66.2
78884;SHT31;68262;51.968;5.672;2023-05-10T08:10:19;17.3;66.2
78884;SHT31;68262;51.968;5.672;2023-05-10T08:12:49;17.3;66.3
78884;SHT31;68262;51.968;5.672;2023-05-10T08:15:21;17.3;66.4
78884;SHT31;68262;51.968;5.672;2023-05-10T08:17:51;17.3;66.3
78884;SHT31;68262;51.968;5.672;2023-05-10T08:20:20;17.3;66.1
78884;SHT31;68262;51.968;5.672;2023-05-10T08:22:50;17.3;65.6
78884;SHT31;68262;51.968;5.672;2023-05-10T08:25:21;17.3;65.0
78884;SHT31;68262;51.968;5.672;2023-05-10T08:27:51;17.3;65.0
78884;SHT31;68262;51.968;5.672;2023-05-10T08:30:20;17.3;65.1
78884;SHT31;68262;51.968;5.672;2023-05-10T08:32:50;17.3;65.7
78884;SHT31;68262;51.968;5.672;2023-05-10T08:35:21;17.3;64.5
78884;SHT31;68262;51.968;5.672;2023-05-10T08:37:52;17.3;64.9
78884;SHT31;68262;51.968;5.672;2023-05-10T08:40:24;17.3;64.8
78884;SHT31;68262;51.968;5.672;2023-05-10T08:43:04;17.4;65.1
78884;SHT31;68262;51.968;5.672;2023-05-10T08:45:38;17.4;65.0
78884;SHT31;68262;51.968;5.672;2023-05-10T08:48:10;17.5;63.8
78884;SHT31;68262;51.968;5.672;2023-05-10T08:50:41;17.5;63.2
78884;SHT31;68262;51.968;5.672;2023-05-10T08:53:12;17.5;64.8
78884;SHT31;68262;51.968;5.672;2023-05-10T08:55:42;17.6;63.9
78884;SHT31;68262;51.968;5.672;2023-05-10T08:58:12;17.6;62.8
78884;SHT31;68262;51.968;5.672;2023-05-10T09:00:42;17.7;63.3
78884;SHT31;68262;51.968;5.672;2023-05-10T09:03:12;17.7;62.8
78884;SHT31;68262;51.968;5.672;2023-05-10T09:05:42;17.8;64.8
78884;SHT31;68262;51.968;5.672;2023-05-10T09:08:12;17.8;62.5
78884;SHT31;68262;51.968;5.672;2023-05-10T09:10:44;17.9;63.3
78884;SHT31;68262;51.968;5.672;2023-05-10T09:13:17;17.9;64.0
78884;SHT31;68262;51.968;5.672;2023-05-10T09:15:48;18.0;61.7
78884;SHT31;68262;51.968;5.672;2023-05-10T09:18:18;18.0;61.2
78884;SHT31;68262;51.968;5.672;2023-05-10T09:20:50;18.0;62.1
78884;SHT31;68262;51.968;5.672;2023-05-10T09:23:19;18.1;61.8
78884;SHT31;68262;51.968;5.672;2023-05-10T09:26:03;18.1;62.0
78884;SHT31;68262;51.968;5.672;2023-05-10T09:28:34;18.1;61.5
78884;SHT31;68262;51.968;5.672;2023-05-10T09:31:08;18.2;61.1
78884;SHT31;68262;51.968;5.672;2023-05-10T09:33:46;18.2;61.4
78884;SHT31;68262;51.968;5.672;2023-05-10T09:36:16;18.2;62.5
78884;SHT31;68262;51.968;5.672;2023-05-10T09:38:48;18.3;61.1
78884;SHT31;68262;51.968;5.672;2023-05-10T09:41:20;18.3;60.4
78884;SHT31;68262;51.968;5.672;2023-05-10T09:43:50;18.3;59.7
78884;SHT31;68262;51.968;5.672;2023-05-10T09:46:26;18.3;59.5
78884;SHT31;68262;51.968;5.672;2023-05-10T09:48:55;18.4;60.1
78884;SHT31;68262;51.968;5.672;2023-05-10T09:51:25;18.4;60.4
78884;SHT31;68262;51.968;5.672;2023-05-10T09:54:11;18.4;61.2
78884;SHT31;68262;51.968;5.672;2023-05-10T09:56:42;18.4;60.1
78884;SHT31;68262;51.968;5.672;2023-05-10T09:59:12;18.4;60.2
78884;SHT31;68262;51.968;5.672;2023-05-10T10:01:52;18.4;60.2
78884;SHT31;68262;51.968;5.672;2023-05-10T10:04:22;18.4;61.2
78884;SHT31;68262;51.968;5.672;2023-05-10T10:07:03;18.5;61.9
78884;SHT31;68262;51.968;5.672;2023-05-10T10:09:34;18.5;61.0
78884;SHT31;68262;51.968;5.672;2023-05-10T10:12:04;18.5;61.8
78884;SHT31;68262;51.968;5.672;2023-05-10T10:14:38;18.5;61.6
78884;SHT31;68262;51.968;5.672;2023-05-10T10:17:09;18.5;62.8
78884;SHT31;68262;51.968;5.672;2023-05-10T10:19:38;18.5;62.8
78884;SHT31;68262;51.968;5.672;2023-05-10T10:22:08;18.5;61.0
78884;SHT31;68262;51.968;5.672;2023-05-10T10:24:41;18.5;61.4
78884;SHT31;68262;51.968;5.672;2023-05-10T10:27:21;18.5;62.3
78884;SHT31;68262;51.968;5.672;2023-05-10T10:30:03;18.5;61.8
78884;SHT31;68262;51.968;5.672;2023-05-10T10:32:48;18.6;62.3
78884;SHT31;68262;51.968;5.672;2023-05-10T10:35:22;18.6;62.5
78884;SHT31;68262;51.968;5.672;2023-05-10T10:37:52;18.6;61.8
78884;SHT31;68262;51.968;5.672;2023-05-10T10:40:26;18.7;60.1
78884;SHT31;68262;51.968;5.672;2023-05-10T10:42:57;18.7;60.2
78884;SHT31;68262;51.968;5.672;2023-05-10T10:45:27;18.8;61.2
78884;SHT31;68262;51.968;5.672;2023-05-10T10:48:22;18.8;60.2
78884;SHT31;68262;51.968;5.672;2023-05-10T10:50:57;18.8;59.5
78884;SHT31;68262;51.968;5.672;2023-05-10T10:53:28;18.9;57.6
78884;SHT31;68262;51.968;5.672;2023-05-10T10:56:05;18.9;57.7
78884;SHT31;68262;51.968;5.672;2023-05-10T10:58:37;18.9;58.8
78884;SHT31;68262;51.968;5.672;2023-05-10T11:01:12;18.9;57.6
78884;SHT31;68262;51.968;5.672;2023-05-10T11:06:35;18.9;59.9
78884;SHT31;68262;51.968;5.672;2023-05-10T11:09:08;18.9;58.8
78884;SHT31;68262;51.968;5.672;2023-05-10T11:11:53;18.9;59.6
78884;SHT31;68262;51.968;5.672;2023-05-10T11:14:27;18.9;60.1
78884;SHT31;68262;51.968;5.672;2023-05-10T11:16:57;18.9;60.3
78884;SHT31;68262;51.968;5.672;2023-05-10T11:19:27;18.9;60.6
78884;SHT31;68262;51.968;5.672;2023-05-10T11:22:14;18.9;60.5
78884;SHT31;68262;51.968;5.672;2023-05-10T11:24:56;18.9;60.6
78884;SHT31;68262;51.968;5.672;2023-05-10T11:27:26;18.9;61.2
78884;SHT31;68262;51.968;5.672;2023-05-10T11:29:56;18.9;62.2
78884;SHT31;68262;51.968;5.672;2023-05-10T11:32:25;19.0;61.4
78884;SHT31;68262;51.968;5.672;2023-05-10T11:34:55;19.0;60.3
78884;SHT31;68262;51.968;5.672;2023-05-10T11:37:28;19.0;60.8
78884;SHT31;68262;51.968;5.672;2023-05-10T11:40:00;19.0;60.6
78884;SHT31;68262;51.968;5.672;2023-05-10T11:42:30;19.1;61.1
78884;SHT31;68262;51.968;5.672;2023-05-10T11:45:02;19.1;59.9
78884;SHT31;68262;51.968;5.672;2023-05-10T11:47:32;19.1;59.6
78884;SHT31;68262;51.968;5.672;2023-05-10T11:50:03;19.2;60.4
78884;SHT31;68262;51.968;5.672;2023-05-10T11:52:37;19.2;60.0
78884;SHT31;68262;51.968;5.672;2023-05-10T11:55:07;19.3;60.0
78884;SHT31;68262;51.968;5.672;2023-05-10T11:57:36;19.4;61.4
78884;SHT31;68262;51.968;5.672;2023-05-10T12:00:10;19.4;60.0
78884;SHT31;68262;51.968;5.672;2023-05-10T12:02:40;19.5;58.2
78884;SHT31;68262;51.968;5.672;2023-05-10T12:05:10;19.6;57.2
78884;SHT31;68262;51.968;5.672;2023-05-10T12:07:40;19.6;57.9
78884;SHT31;68262;51.968;5.672;2023-05-10T12:10:11;19.7;59.2
78884;SHT31;68262;51.968;5.672;2023-05-10T12:12:43;19.7;59.2
78884;SHT31;68262;51.968;5.672;2023-05-10T12:15:18;19.8;57.7
78884;SHT31;68262;51.968;5.672;2023-05-10T12:17:50;19.9;58.3
78884;SHT31;68262;51.968;5.672;2023-05-10T12:20:22;19.9;57.0
78884;SHT31;68262;51.968;5.672;2023-05-10T12:22:54;20.0;57.0
78884;SHT31;68262;51.968;5.672;2023-05-10T12:25:32;20.0;57.4
78884;SHT31;68262;51.968;5.672;2023-05-10T12:28:04;20.1;56.1
78884;SHT31;68262;51.968;5.672;2023-05-10T12:30:36;20.1;56.8
78884;SHT31;68262;51.968;5.672;2023-05-10T12:33:10;20.1;58.1
78884;SHT31;68262;51.968;5.672;2023-05-10T12:35:47;20.2;57.5
78884;SHT31;68262;51.968;5.672;2023-05-10T12:38:32;20.2;57.2
78884;SHT31;68262;51.968;5.672;2023-05-10T12:41:03;20.3;57.4
78884;SHT31;68262;51.968;5.672;2023-05-10T12:43:34;20.3;55.7
78884;SHT31;68262;51.968;5.672;2023-05-10T12:46:08;20.4;55.9
78884;SHT31;68262;51.968;5.672;2023-05-10T12:48:40;20.4;54.2
78884;SHT31;68262;51.968;5.672;2023-05-10T12:51:10;20.4;55.2
78884;SHT31;68262;51.968;5.672;2023-05-10T12:53:44;20.4;56.3
78884;SHT31;68262;51.968;5.672;2023-05-10T12:56:17;20.4;56.3
78884;SHT31;68262;51.968;5.672;2023-05-10T12:58:47;20.5;55.1
78884;SHT31;68262;51.968;5.672;2023-05-10T13:01:17;20.5;55.7
78884;SHT31;68262;51.968;5.672;2023-05-10T13:03:46;20.5;53.9
78884;SHT31;68262;51.968;5.672;2023-05-10T13:06:16;20.5;54.9
78884;SHT31;68262;51.968;5.672;2023-05-10T13:08:45;20.4;55.6
78884;SHT31;68262;51.968;5.672;2023-05-10T13:11:15;20.4;55.0
78884;SHT31;68262;51.968;5.672;2023-05-10T13:13:47;20.3;55.3
78884;SHT31;68262;51.968;5.672;2023-05-10T13:16:16;20.2;56.2
78884;SHT31;68262;51.968;5.672;2023-05-10T13:18:45;20.2;56.0
78884;SHT31;68262;51.968;5.672;2023-05-10T13:21:15;20.1;55.7
78884;SHT31;68262;51.968;5.672;2023-05-10T13:23:44;20.0;56.6
78884;SHT31;68262;51.968;5.672;2023-05-10T13:26:14;20.0;56.6
78884;SHT31;68262;51.968;5.672;2023-05-10T13:28:43;19.9;57.0
78884;SHT31;68262;51.968;5.672;2023-05-10T13:31:13;19.8;57.3
78884;SHT31;68262;51.968;5.672;2023-05-10T13:33:43;19.8;57.6
78884;SHT31;68262;51.968;5.672;2023-05-10T13:36:12;19.7;58.1
78884;SHT31;68262;51.968;5.672;2023-05-10T13:38:42;19.7;58.5
78884;SHT31;68262;51.968;5.672;2023-05-10T13:41:11;19.6;59.3
78884;SHT31;68262;51.968;5.672;2023-05-10T13:43:41;19.5;60.5
78884;SHT31;68262;51.968;5.672;2023-05-10T13:46:11;19.5;60.5
78884;SHT31;68262;51.968;5.672;2023-05-10T13:48:40;19.5;61.5
78884;SHT31;68262;51.968;5.672;2023-05-10T13:51:10;19.4;61.4
78884;SHT31;68262;51.968;5.672;2023-05-10T13:53:40;19.4;61.8
78884;SHT31;68262;51.968;5.672;2023-05-10T13:56:09;19.4;63.5
78884;SHT31;68262;51.968;5.672;2023-05-10T13:58:39;19.4;63.6
78884;SHT31;68262;51.968;5.672;2023-05-10T14:01:08;19.3;62.5
78884;SHT31;68262;51.968;5.672;2023-05-10T14:03:39;19.3;62.1
78884;SHT31;68262;51.968;5.672;2023-05-10T14:06:09;19.3;62.9
78884;SHT31;68262;51.968;5.672;2023-05-10T14:08:40;19.2;63.2
78884;SHT31;68262;51.968;5.672;2023-05-10T14:11:10;19.2;63.2
78884;SHT31;68262;51.968;5.672;2023-05-10T14:13:40;19.2;63.7
78884;SHT31;68262;51.968;5.672;2023-05-10T14:16:10;19.2;63.8
78884;SHT31;68262;51.968;5.672;2023-05-10T14:18:41;19.1;63.3
78884;SHT31;68262;51.968;5.672;2023-05-10T14:21:11;19.1;63.9
78884;SHT31;68262;51.968;5.672;2023-05-10T14:23:41;19.1;64.8
78884;SHT31;68262;51.968;5.672;2023-05-10T14:26:11;19.1;65.1
78884;SHT31;68262;51.968;5.672;2023-05-10T14:28:40;19.1;63.9
78884;SHT31;68262;51.968;5.672;2023-05-10T14:31:10;19.1;64.1
78884;SHT31;68262;51.968;5.672;2023-05-10T14:33:39;19.1;63.4
78884;SHT31;68262;51.968;5.672;2023-05-10T14:36:09;19.0;62.8
78884;SHT31;68262;51.968;5.672;2023-05-10T14:38:39;19.0;63.3
78884;SHT31;68262;51.968;5.672;2023-05-10T14:41:09;19.0;63.9
78884;SHT31;68262;51.968;5.672;2023-05-10T14:43:41;19.0;64.2
78884;SHT31;68262;51.968;5.672;2023-05-10T14:46:11;19.0;63.7
78884;SHT31;68262;51.968;5.672;2023-05-10T14:48:40;19.0;62.4
78884;SHT31;68262;51.968;5.672;2023-05-10T14:51:10;19.0;63.9
78884;SHT31;68262;51.968;5.672;2023-05-10T14:53:39;19.0;64.4
78884;SHT31;68262;51.968;5.672;2023-05-10T14:56:09;19.1;64.0
78884;SHT31;68262;51.968;5.672;2023-05-10T14:58:38;19.1;64.6
78884;SHT31;68262;51.968;5.672;2023-05-10T15:01:08;19.1;64.5
78884;SHT31;68262;51.968;5.672;2023-05-10T15:03:37;19.2;64.6
78884;SHT31;68262;51.968;5.672;2023-05-10T15:06:07;19.2;63.2
78884;SHT31;68262;51.968;5.672;2023-05-10T15:08:37;19.3;63.3
78884;SHT31;68262;51.968;5.672;2023-05-10T15:11:07;19.3;63.1
78884;SHT31;68262;51.968;5.672;2023-05-10T15:13:37;19.4;64.7
78884;SHT31;68262;51.968;5.672;2023-05-10T15:16:06;19.4;66.4
78884;SHT31;68262;51.968;5.672;2023-05-10T15:18:36;19.5;64.0
78884;SHT31;68262;51.968;5.672;2023-05-10T15:21:06;19.5;63.0
78884;SHT31;68262;51.968;5.672;2023-05-10T15:23:36;19.6;63.6
78884;SHT31;68262;51.968;5.672;2023-05-10T15:26:05;19.6;61.8
78884;SHT31;68262;51.968;5.672;2023-05-10T15:28:35;19.6;63.3
78884;SHT31;68262;51.968;5.672;2023-05-10T15:31:04;19.6;64.3
78884;SHT31;68262;51.968;5.672;2023-05-10T15:33:35;19.7;64.8
78884;SHT31;68262;51.968;5.672;2023-05-10T15:36:05;19.7;63.2
78884;SHT31;68262;51.968;5.672;2023-05-10T15:38:35;19.8;64.5
78884;SHT31;68262;51.968;5.672;2023-05-10T15:41:06;19.8;62.9
78884;SHT31;68262;51.968;5.672;2023-05-10T15:43:36;19.9;60.2
78884;SHT31;68262;51.968;5.672;2023-05-10T15:46:06;20.0;59.7
78884;SHT31;68262;51.968;5.672;2023-05-10T15:48:35;20.0;60.6
78884;SHT31;68262;51.968;5.672;2023-05-10T15:51:08;20.1;60.4
78884;SHT31;68262;51.968;5.672;2023-05-10T15:53:37;20.1;59.1
78884;SHT31;68262;51.968;5.672;2023-05-10T15:56:09;20.2;61.5
78884;SHT31;68262;51.968;5.672;2023-05-10T15:58:40;20.2;59.5
78884;SHT31;68262;51.968;5.672;2023-05-10T16:01:10;20.3;59.3
78884;SHT31;68262;51.968;5.672;2023-05-10T16:03:42;20.3;58.7
78884;SHT31;68262;51.968;5.672;2023-05-10T16:06:12;20.3;58.3
78884;SHT31;68262;51.968;5.672;2023-05-10T16:08:41;20.3;58.8
78884;SHT31;68262;51.968;5.672;2023-05-10T16:11:11;20.3;58.1
78884;SHT31;68262;51.968;5.672;2023-05-10T16:13:40;20.2;57.9
78884;SHT31;68262;51.968;5.672;2023-05-10T16:16:10;20.2;58.4
78884;SHT31;68262;51.968;5.672;2023-05-10T16:18:39;20.2;58.8
78884;SHT31;68262;51.968;5.672;2023-05-10T16:21:09;20.1;60.3
78884;SHT31;68262;51.968;5.672;2023-05-10T16:23:39;20.1;61.8
78884;SHT31;68262;51.968;5.672;2023-05-10T16:26:09;20.1;60.8
78884;SHT31;68262;51.968;5.672;2023-05-10T16:28:39;20.1;62.0
78884;SHT31;68262;51.968;5.672;2023-05-10T16:31:09;20.1;61.7
78884;SHT31;68262;51.968;5.672;2023-05-10T16:33:38;20.1;61.7